Terminal Aerodrome Forecast
Issued by NWS

Home | Current Version | Previous Version | Text Only | Print | Product List | Glossary Off
Versions: 1 2 3 4 5 6 7 8 9 10 11 12

000
FTUS45 KRIW 061124
TAFBPI
TAF
KBPI 061124Z 0612/0712 VRB05KT P6SM VCSH SCT035 BKN070
     FM062000 VRB10G20KT P6SM VCTS BKN050CB
     FM070200 35007KT P6SM VCSH BKN050=

USA.gov is the U.S. government's official web portal to all federal, state and local government web resources and services.